createdAt,value
2018-07-09T00:00:26.639Z,93.69
2018-07-09T00:01:35.558Z,93.21
2018-07-09T00:02:44.194Z,93.4
2018-07-09T00:03:52.851Z,92.93
2018-07-09T00:05:01.494Z,93.31
2018-07-09T00:06:10.412Z,93.98
2018-07-09T00:07:19.338Z,94.07
2018-07-09T00:08:27.995Z,94.26
2018-07-09T00:09:36.637Z,93.79
2018-07-09T00:10:45.298Z,93.93
2018-07-09T00:11:53.928Z,94.07
2018-07-09T00:13:02.579Z,94.46
2018-07-09T00:14:11.755Z,94.17
2018-07-09T00:15:20.401Z,94.02
2018-07-09T00:16:29.051Z,94.31
2018-07-09T00:17:37.686Z,94.51
2018-07-09T00:18:46.337Z,94.79
2018-07-09T00:19:54.974Z,95.17
2018-07-09T00:21:03.630Z,94.89
2018-07-09T00:22:12.537Z,95.27
2018-07-09T00:23:21.186Z,94.7
2018-07-09T00:24:30.355Z,94.7
2018-07-09T00:25:39.009Z,94.79
2018-07-09T00:26:47.649Z,95.27
2018-07-09T00:27:56.292Z,96.03
2018-07-09T00:29:04.937Z,95.75
2018-07-09T00:30:13.592Z,95.94
2018-07-09T00:31:22.236Z,95.56
2018-07-09T00:32:31.142Z,95.75
2018-07-09T00:33:39.785Z,95.75
2018-07-09T00:34:48.429Z,95.75
2018-07-09T00:35:57.085Z,95.65
2018-07-09T00:37:05.723Z,96.03
2018-07-09T00:38:14.373Z,96.13
2018-07-09T00:39:23.014Z,95.75
2018-07-09T00:40:31.664Z,95.84
2018-07-09T00:41:40.572Z,96.03
2018-07-09T00:42:49.222Z,96.32
2018-07-09T00:43:57.858Z,96.13
2018-07-09T00:45:06.514Z,95.84
2018-07-09T00:46:15.156Z,96.22
2018-07-09T00:47:23.802Z,96.46
2018-07-09T00:48:32.436Z,96.37
2018-07-09T00:49:41.085Z,96.08
2018-07-09T00:50:49.735Z,97.03
2018-07-09T00:51:58.707Z,97.23
2018-07-09T00:53:07.353Z,97.23
2018-07-09T00:54:16.258Z,97.32
2018-07-09T00:55:24.908Z,97.32
2018-07-09T00:56:33.542Z,97.32
2018-07-09T00:57:42.197Z,97.32
2018-07-09T00:58:50.834Z,97.23
2018-07-09T00:59:59.477Z,97.32
2018-07-09T01:01:08.123Z,97.89
2018-07-09T01:02:17.037Z,98.57
2018-07-09T01:03:25.947Z,98.47
2018-07-09T01:04:34.593Z,98.47
2018-07-09T01:05:43.236Z,98.47
2018-07-09T01:06:52.140Z,98.66
2018-07-09T01:08:00.783Z,98.47
2018-07-09T01:09:09.950Z,98.57
2018-07-09T01:10:18.592Z,98.66
2018-07-09T01:11:27.502Z,98.47
2018-07-09T01:12:36.414Z,98.08
2018-07-09T01:13:45.323Z,98.75
2018-07-09T01:14:53.968Z,98.47
2018-07-09T01:16:02.608Z,98.28
2018-07-09T01:17:11.254Z,98.75
2018-07-09T01:18:19.899Z,98.57
2018-07-09T01:19:28.543Z,98.66
2018-07-09T01:20:37.187Z,99.14
2018-07-09T01:21:46.105Z,99.33
2018-07-09T01:22:54.751Z,99.9
2018-07-09T01:24:03.395Z,99.99
2018-07-09T01:25:12.036Z,99.95
2018-07-09T01:26:20.684Z,99.99
2018-07-09T01:27:29.329Z,99.99
2018-07-09T01:28:37.975Z,99.95
2018-07-09T01:29:46.624Z,99.99
2018-07-09T01:30:55.264Z,99.95
2018-07-09T01:32:03.907Z,99.85
2018-07-09T01:33:12.553Z,99.99
2018-07-09T01:34:21.464Z,99.99
2018-07-09T01:35:30.105Z,99.99
2018-07-09T01:36:38.747Z,99.99
2018-07-09T01:37:47.659Z,99.99
2018-07-09T01:38:56.305Z,99.99
2018-07-09T01:40:04.948Z,99.99
2018-07-09T01:41:13.595Z,99.99
2018-07-09T01:42:22.237Z,99.99
2018-07-09T01:43:30.885Z,99.99
2018-07-09T01:44:39.527Z,99.99
2018-07-09T01:45:48.174Z,99.99
2018-07-09T01:46:57.075Z,99.99
2018-07-09T01:48:05.718Z,99.99
2018-07-09T01:49:14.366Z,99.99
2018-07-09T01:50:23.012Z,99.99
2018-07-09T01:51:31.655Z,99.99
2018-07-09T01:52:40.554Z,99.99
2018-07-09T01:53:49.204Z,99.99
2018-07-09T01:54:57.844Z,99.99
2018-07-09T01:56:06.490Z,99.99
2018-07-09T01:57:15.149Z,99.99
2018-07-09T01:58:23.777Z,99.99
2018-07-09T01:59:32.421Z,99.99
2018-07-09T02:00:41.063Z,99.99
2018-07-09T02:01:49.983Z,99.99
2018-07-09T02:02:58.889Z,99.99
2018-07-09T02:04:07.791Z,99.99
2018-07-09T02:05:16.431Z,99.99
2018-07-09T02:06:25.076Z,99.99
2018-07-09T02:07:33.725Z,99.99
2018-07-09T02:08:42.364Z,99.99
2018-07-09T02:09:51.011Z,99.99
2018-07-09T02:10:59.644Z,99.99
2018-07-09T02:12:08.573Z,99.99
2018-07-09T02:13:17.475Z,99.99
2018-07-09T02:14:26.121Z,99.99
2018-07-09T02:15:34.756Z,99.99
2018-07-09T02:16:43.408Z,99.99
2018-07-09T02:17:52.050Z,99.99
2018-07-09T02:19:00.694Z,99.99
2018-07-09T02:20:09.327Z,99.99
2018-07-09T02:21:17.981Z,99.99
2018-07-09T02:22:26.631Z,99.99
2018-07-09T02:23:35.277Z,99.99
2018-07-09T02:24:43.924Z,99.99
2018-07-09T02:25:52.559Z,99.99
2018-07-09T02:27:01.207Z,99.99
2018-07-09T02:28:09.848Z,99.99
2018-07-09T02:29:18.500Z,99.99
2018-07-09T02:30:27.663Z,99.99
2018-07-09T02:31:36.838Z,99.99
2018-07-09T02:32:45.479Z,99.99
2018-07-09T02:33:54.137Z,99.99
2018-07-09T02:35:02.773Z,99.99
2018-07-09T02:36:11.423Z,99.99
2018-07-09T02:37:20.063Z,99.99
2018-07-09T02:38:28.714Z,99.99
2018-07-09T02:39:37.622Z,99.99
2018-07-09T02:40:46.266Z,99.99
2018-07-09T02:41:54.906Z,99.99
2018-07-09T02:43:03.812Z,99.99
2018-07-09T02:44:12.731Z,99.99
2018-07-09T02:45:21.372Z,99.99
2018-07-09T02:46:30.284Z,99.99
2018-07-09T02:47:38.930Z,99.99
2018-07-09T02:48:47.585Z,99.99
2018-07-09T02:49:56.501Z,99.99
2018-07-09T02:51:05.151Z,99.99
2018-07-09T02:52:14.064Z,99.99
2018-07-09T02:53:22.719Z,99.99
2018-07-09T02:54:31.357Z,99.99
2018-07-09T02:55:40.005Z,99.99
2018-07-09T02:56:48.913Z,99.99
2018-07-09T02:57:57.561Z,99.99
2018-07-09T02:59:06.205Z,99.99
2018-07-09T03:00:14.850Z,99.99
2018-07-09T03:01:23.763Z,99.99
2018-07-09T03:02:32.405Z,99.99
2018-07-09T03:03:41.325Z,99.99
2018-07-09T03:04:50.238Z,99.99
2018-07-09T03:05:58.986Z,99.99
2018-07-09T03:07:07.857Z,99.99
2018-07-09T03:08:16.745Z,99.99
2018-07-09T03:09:25.493Z,99.99
2018-07-09T03:10:34.142Z,99.99
2018-07-09T03:11:42.864Z,99.99
2018-07-09T03:12:51.724Z,99.99
2018-07-09T03:14:00.373Z,99.99
2018-07-09T03:15:09.295Z,99.99
2018-07-09T03:16:17.941Z,99.99
2018-07-09T03:17:26.846Z,99.99
2018-07-09T03:18:35.761Z,99.99
2018-07-09T03:19:44.396Z,99.99
2018-07-09T03:20:53.047Z,99.99
2018-07-09T03:22:01.694Z,99.99
2018-07-09T03:23:10.861Z,99.99
2018-07-09T03:24:19.505Z,99.99
2018-07-09T03:25:28.153Z,99.99
2018-07-09T03:26:36.795Z,99.99
2018-07-09T03:27:45.437Z,99.99
2018-07-09T03:28:54.076Z,99.99
2018-07-09T03:30:02.994Z,99.99
2018-07-09T03:31:12.450Z,99.99
2018-07-09T03:32:21.094Z,99.99
2018-07-09T03:33:29.734Z,99.99
2018-07-09T03:34:38.379Z,99.99
2018-07-09T03:35:47.022Z,99.99
2018-07-09T03:36:55.674Z,99.99
2018-07-09T03:38:04.320Z,99.99
2018-07-09T03:39:12.959Z,99.99
2018-07-09T03:40:21.607Z,99.99
2018-07-09T03:41:30.286Z,99.99
2018-07-09T03:42:38.896Z,99.99
2018-07-09T03:43:47.535Z,99.99
2018-07-09T03:44:56.179Z,99.99
2018-07-09T03:46:04.821Z,99.99
2018-07-09T03:47:13.469Z,99.99
2018-07-09T03:48:22.372Z,99.99
2018-07-09T03:49:31.546Z,99.99
2018-07-09T03:50:40.192Z,99.99
2018-07-09T03:51:48.840Z,99.99
2018-07-09T03:52:57.483Z,99.99
2018-07-09T03:54:06.124Z,99.99
2018-07-09T03:55:14.765Z,99.99
2018-07-09T03:56:23.411Z,99.99
2018-07-09T03:57:32.050Z,99.99
2018-07-09T03:58:40.690Z,99.99
2018-07-09T03:59:49.332Z,99.99
2018-07-09T04:00:57.979Z,99.99
2018-07-09T04:02:06.631Z,99.99
2018-07-09T04:03:15.273Z,99.99
2018-07-09T04:04:24.179Z,99.99
2018-07-09T04:05:32.829Z,99.99
2018-07-09T04:06:41.469Z,99.99
2018-07-09T04:07:50.115Z,99.99
2018-07-09T04:08:59.288Z,99.99
2018-07-09T04:10:07.934Z,99.99
2018-07-09T04:11:16.576Z,99.99
2018-07-09T04:12:25.218Z,99.99
2018-07-09T04:13:33.862Z,99.99
2018-07-09T04:14:42.574Z,99.99
2018-07-09T04:15:51.183Z,99.99
2018-07-09T04:16:59.796Z,99.99
2018-07-09T04:18:08.439Z,99.99
2018-07-09T04:19:17.081Z,99.99
2018-07-09T04:20:25.728Z,99.99
2018-07-09T04:21:34.372Z,99.99
2018-07-09T04:22:43.014Z,99.99
2018-07-09T04:23:51.653Z,99.99
2018-07-09T04:25:00.570Z,99.99
2018-07-09T04:26:09.231Z,99.99
2018-07-09T04:27:18.204Z,99.99
2018-07-09T04:28:26.844Z,99.99
2018-07-09T04:29:35.494Z,99.99
2018-07-09T04:30:44.134Z,99.99
2018-07-09T04:31:52.779Z,99.99
2018-07-09T04:33:01.425Z,99.99
2018-07-09T04:34:10.080Z,99.99
2018-07-09T04:35:18.970Z,99.99
2018-07-09T04:36:27.612Z,99.99
2018-07-09T04:37:36.261Z,99.99
2018-07-09T04:38:44.901Z,99.99
2018-07-09T04:39:53.544Z,99.99
2018-07-09T04:41:02.189Z,99.99
2018-07-09T04:42:10.839Z,99.99
2018-07-09T04:43:19.484Z,99.99
2018-07-09T04:44:28.128Z,99.99
2018-07-09T04:45:37.037Z,99.99
2018-07-09T04:46:45.686Z,99.99
2018-07-09T04:47:54.326Z,99.99
2018-07-09T04:49:02.973Z,99.99
2018-07-09T04:50:11.614Z,99.99
2018-07-09T04:51:20.517Z,99.99
2018-07-09T04:52:29.699Z,99.99
2018-07-09T04:53:38.412Z,99.99
2018-07-09T04:54:46.989Z,99.99
2018-07-09T04:55:55.628Z,99.99
2018-07-09T04:57:04.283Z,99.99
2018-07-09T04:58:12.924Z,99.99
2018-07-09T04:59:21.569Z,99.99
2018-07-09T05:00:30.732Z,99.99
2018-07-09T05:01:39.385Z,99.99
2018-07-09T05:02:48.036Z,99.99
2018-07-09T05:03:56.681Z,99.99
2018-07-09T05:05:05.578Z,99.99
2018-07-09T05:06:14.228Z,99.99
2018-07-09T05:07:22.880Z,99.99
2018-07-09T05:08:31.523Z,99.99
2018-07-09T05:09:40.170Z,99.99
2018-07-09T05:10:48.801Z,99.99
2018-07-09T05:11:57.464Z,99.99
2018-07-09T05:13:06.117Z,99.99
2018-07-09T05:14:14.743Z,99.99
2018-07-09T05:15:23.377Z,99.99
2018-07-09T05:16:32.028Z,99.99
2018-07-09T05:17:40.665Z,99.99
2018-07-09T05:18:49.320Z,99.99
2018-07-09T05:19:57.956Z,99.99
2018-07-09T05:21:06.601Z,99.99
2018-07-09T05:22:15.244Z,99.99
2018-07-09T05:23:24.173Z,99.99
2018-07-09T05:24:33.081Z,99.99
2018-07-09T05:25:41.721Z,99.99
2018-07-09T05:26:50.366Z,99.99
2018-07-09T05:27:59.003Z,99.99
2018-07-09T05:29:07.926Z,99.99
2018-07-09T05:30:16.567Z,99.99
2018-07-09T05:31:25.482Z,99.99
2018-07-09T05:32:34.118Z,99.99
2018-07-09T05:33:42.772Z,99.99
2018-07-09T05:34:51.414Z,99.99
2018-07-09T05:36:00.062Z,99.99
2018-07-09T05:37:08.705Z,99.99
2018-07-09T05:38:17.358Z,99.99
2018-07-09T05:39:26.001Z,99.99
2018-07-09T05:40:34.648Z,99.99
2018-07-09T05:41:43.549Z,99.99
2018-07-09T05:42:52.196Z,99.99
2018-07-09T05:44:00.842Z,99.99
2018-07-09T05:45:09.492Z,99.99
2018-07-09T05:46:18.136Z,99.99
2018-07-09T05:47:26.772Z,99.99
2018-07-09T05:48:35.423Z,99.99
2018-07-09T05:49:44.065Z,99.99
2018-07-09T05:50:52.980Z,99.99
2018-07-09T05:52:01.890Z,99.99
2018-07-09T05:53:10.535Z,99.99
2018-07-09T05:54:19.180Z,99.99
2018-07-09T05:55:27.828Z,99.99
2018-07-09T05:56:36.754Z,99.99
2018-07-09T05:57:45.398Z,99.72
2018-07-09T05:58:54.072Z,99.48
2018-07-09T06:00:02.695Z,98.81
2018-07-09T06:01:11.337Z,97.9
2018-07-09T06:02:19.982Z,97.42
2018-07-09T06:03:28.629Z,96.75
2018-07-09T06:04:37.272Z,97.33
2018-07-09T06:05:45.921Z,96.27
2018-07-09T06:06:54.567Z,96.03
2018-07-09T06:08:03.214Z,95.84
2018-07-09T06:09:12.390Z,94.98
2018-07-09T06:10:21.045Z,94.31
2018-07-09T06:11:29.741Z,94.69
2018-07-09T06:12:38.338Z,94.89
2018-07-09T06:13:47.242Z,94.5
2018-07-09T06:14:55.959Z,94.64
2018-07-09T06:16:04.550Z,94.35
2018-07-09T06:17:13.463Z,93.68
2018-07-09T06:18:22.108Z,93.4
2018-07-09T06:19:30.775Z,93.59
2018-07-09T06:20:39.762Z,93.3
2018-07-09T06:21:48.409Z,93.11
2018-07-09T06:22:57.059Z,92.72
2018-07-09T06:24:05.974Z,92.91
2018-07-09T06:25:14.621Z,93.21
2018-07-09T06:26:23.274Z,93.3
2018-07-09T06:27:31.927Z,92.91
2018-07-09T06:28:40.566Z,92.91
2018-07-09T06:29:49.216Z,93.01
2018-07-09T06:30:57.869Z,92.63
2018-07-09T06:32:06.524Z,91.67
2018-07-09T06:33:15.429Z,91.77
2018-07-09T06:34:24.077Z,91.86
2018-07-09T06:35:32.992Z,91.52
2018-07-09T06:36:41.647Z,91.72
2018-07-09T06:37:50.292Z,91.72
2018-07-09T06:38:58.939Z,91.62
2018-07-09T06:40:07.584Z,91.42
2018-07-09T06:41:16.230Z,90.75
2018-07-09T06:42:24.887Z,90.85
2018-07-09T06:43:33.568Z,90.37
2018-07-09T06:44:42.235Z,90.37
2018-07-09T06:45:51.090Z,90.7
2018-07-09T06:46:59.743Z,89.75
2018-07-09T06:48:08.399Z,89.55
2018-07-09T06:49:17.037Z,89.65
2018-07-09T06:50:25.942Z,89.36
2018-07-09T06:51:35.129Z,89.26
2018-07-09T06:52:43.778Z,88.59
2018-07-09T06:53:52.423Z,88.79
2018-07-09T06:55:01.062Z,88.69
2018-07-09T06:56:09.714Z,87.87
2018-07-09T06:57:18.363Z,87.87
2018-07-09T06:58:27.013Z,88.16
2018-07-09T06:59:35.667Z,87.77
2018-07-09T07:00:44.307Z,87.1
2018-07-09T07:01:52.964Z,87.01
2018-07-09T07:03:01.603Z,87.1
2018-07-09T07:04:10.261Z,87.15
2018-07-09T07:05:18.894Z,86.47
2018-07-09T07:06:27.811Z,85.99
2018-07-09T07:07:36.457Z,86.18
2018-07-09T07:08:45.152Z,85.32
2018-07-09T07:09:53.751Z,85.41
2018-07-09T07:11:02.667Z,85.41
2018-07-09T07:12:11.577Z,85.22
2018-07-09T07:13:20.236Z,84.59
2018-07-09T07:14:28.969Z,84.4
2018-07-09T07:15:37.789Z,83.83
2018-07-09T07:16:46.435Z,84.4
2018-07-09T07:17:55.349Z,83.44
2018-07-09T07:19:04.277Z,83.73
2018-07-09T07:20:13.186Z,83.25
2018-07-09T07:21:22.104Z,82.86
2018-07-09T07:22:31.013Z,83.06
2018-07-09T07:23:39.670Z,83.15
2018-07-09T07:24:48.314Z,82.96
2018-07-09T07:25:56.967Z,83.06
2018-07-09T07:27:05.609Z,83.06
2018-07-09T07:28:14.267Z,82.96
2018-07-09T07:29:23.172Z,82.96
2018-07-09T07:30:31.825Z,83.34
2018-07-09T07:31:40.464Z,83.25
2018-07-09T07:32:49.179Z,82.67
2018-07-09T07:33:57.775Z,82.67
2018-07-09T07:35:06.435Z,82.57
2018-07-09T07:36:15.349Z,82.76
2018-07-09T07:37:23.989Z,82.57
2018-07-09T07:38:32.640Z,82.48
2018-07-09T07:39:41.284Z,83.15
2018-07-09T07:40:49.941Z,82.96
2018-07-09T07:41:58.579Z,81.81
2018-07-09T07:43:07.767Z,80.94
2018-07-09T07:44:16.411Z,80.88
2018-07-09T07:45:25.072Z,80.98
2018-07-09T07:46:33.714Z,80.6
2018-07-09T07:47:42.363Z,79.77
2018-07-09T07:48:51.017Z,79.28
2018-07-09T07:49:59.658Z,78.61
2018-07-09T07:51:08.644Z,77.5
2018-07-09T07:52:17.301Z,77.88
2018-07-09T07:53:26.217Z,77.59
2018-07-09T07:54:34.870Z,77.94
2018-07-09T07:55:43.587Z,77.5
2018-07-09T07:56:52.166Z,77.21
2018-07-09T07:58:00.811Z,77.65
2018-07-09T07:59:09.469Z,77.75
2018-07-09T08:00:18.110Z,77.36
2018-07-09T08:01:26.763Z,77.75
2018-07-09T08:02:35.408Z,77.36
2018-07-09T08:03:44.071Z,77.26
2018-07-09T08:04:52.974Z,77.17
2018-07-09T08:06:01.626Z,77.94
2018-07-09T08:07:10.275Z,78.33
2018-07-09T08:08:18.934Z,78.9
2018-07-09T08:09:27.626Z,78.42
2018-07-09T08:10:36.228Z,78.77
2018-07-09T08:11:49.127Z,79.63
2018-07-09T08:13:30.177Z,79.53
2018-07-09T08:14:39.462Z,79.82
2018-07-09T08:15:48.108Z,79.35
2018-07-09T08:16:56.764Z,78.86
2018-07-09T08:18:05.412Z,78.96
2018-07-09T08:19:14.084Z,79.35
2018-07-09T08:20:22.732Z,79.82
2018-07-09T08:21:31.385Z,79.73
2018-07-09T08:22:40.029Z,79.92
2018-07-09T08:23:48.687Z,78.86
2018-07-09T08:24:57.925Z,78.86
2018-07-09T08:26:06.422Z,77.51
2018-07-09T08:27:15.051Z,78.96
2018-07-09T08:28:23.711Z,77.94
2018-07-09T08:29:32.373Z,77.81
2018-07-09T08:30:41.365Z,78.19
2018-07-09T08:31:50.017Z,77.75
2018-07-09T08:32:58.661Z,76.65
2018-07-09T08:34:07.361Z,76.98
2018-07-09T08:35:16.627Z,76.98
2018-07-09T08:36:25.289Z,76.11
2018-07-09T08:37:33.929Z,75.54
2018-07-09T08:38:42.850Z,75.54
2018-07-09T08:39:51.498Z,75.44
2018-07-09T08:41:00.156Z,76.69
2018-07-09T08:42:09.388Z,76.5
2018-07-09T08:43:18.467Z,76.21
2018-07-09T08:44:27.385Z,75.54
2018-07-09T08:45:36.035Z,75.82
2018-07-09T08:46:44.681Z,76.78
2018-07-09T08:47:53.324Z,76.78
2018-07-09T08:49:01.973Z,77.36
2018-07-09T08:50:10.621Z,74.86
2018-07-09T08:51:19.276Z,75.34
2018-07-09T08:52:27.921Z,74.9
2018-07-09T08:53:36.571Z,74.51
2018-07-09T08:54:46.875Z,73.16
2018-07-09T08:55:58.387Z,72.63
2018-07-09T08:57:07.039Z,72.43
2018-07-09T08:58:15.689Z,71.37
2018-07-09T08:59:24.333Z,70.83
2018-07-09T09:00:32.989Z,70.54
2018-07-09T09:01:41.642Z,70.92
2018-07-09T09:02:50.301Z,70.57
2018-07-09T09:03:58.948Z,70.28
2018-07-09T09:05:07.603Z,70.7
2018-07-09T09:06:16.249Z,69.84
2018-07-09T09:07:24.907Z,68.77
2018-07-09T09:08:33.560Z,68.04
2018-07-09T09:09:42.209Z,68.62
2018-07-09T09:10:51.126Z,68.33
2018-07-09T09:11:59.777Z,68.43
2018-07-09T09:13:09.874Z,67.85
2018-07-09T09:14:21.531Z,68.13
2018-07-09T09:15:32.680Z,68.04
2018-07-09T09:16:44.619Z,68.13
2018-07-09T09:17:53.278Z,68.62
2018-07-09T09:19:01.925Z,68.62
2018-07-09T09:20:10.579Z,69.2
2018-07-09T09:21:19.229Z,68.62
2018-07-09T09:22:27.888Z,69.2
2018-07-09T09:23:37.866Z,68.81
2018-07-09T09:24:48.524Z,68.43
2018-07-09T09:25:57.177Z,68.62
2018-07-09T09:27:06.359Z,68.23
2018-07-09T09:28:15.276Z,68.71
2018-07-09T09:29:23.927Z,68.04
2018-07-09T09:30:32.579Z,68.91
2018-07-09T09:31:41.634Z,69
2018-07-09T09:32:50.286Z,67.94
2018-07-09T09:33:58.937Z,68.52
2018-07-09T09:35:07.860Z,68.81
2018-07-09T09:36:16.768Z,68.62
2018-07-09T09:37:25.451Z,68.62
2018-07-09T09:38:34.073Z,68.33
2018-07-09T09:39:42.724Z,68.91
2018-07-09T09:40:51.371Z,68.75
2018-07-09T09:42:00.031Z,67.46
2018-07-09T09:43:09.006Z,67.11
2018-07-09T09:44:17.606Z,68.52
2018-07-09T09:45:26.259Z,68.36
2018-07-09T09:46:34.907Z,68.26
2018-07-09T09:47:43.558Z,68.55
2018-07-09T09:48:52.214Z,68.17
2018-07-09T09:50:00.857Z,68.23
2018-07-09T09:51:09.519Z,68.13
2018-07-09T09:52:18.165Z,68.62
2018-07-09T09:53:27.082Z,68.71
2018-07-09T09:54:35.728Z,69.1
2018-07-09T09:55:44.389Z,70.45
2018-07-09T09:56:53.036Z,70.64
2018-07-09T09:58:01.690Z,69.97
2018-07-09T09:59:10.333Z,70.16
2018-07-09T10:00:18.987Z,70.51
2018-07-09T10:01:27.919Z,70.51
2018-07-09T10:02:36.577Z,70.42
2018-07-09T10:03:45.225Z,70.61
2018-07-09T10:04:53.866Z,70.13
2018-07-09T10:06:02.523Z,69.84
2018-07-09T10:07:11.168Z,70.51
2018-07-09T10:08:19.830Z,70.26
2018-07-09T10:09:28.733Z,69.2
2018-07-09T10:10:37.389Z,69.29
2018-07-09T10:11:46.037Z,68.55
2018-07-09T10:12:54.698Z,68.84
2018-07-09T10:14:03.340Z,67.88
2018-07-09T10:15:11.998Z,66.85
2018-07-09T10:16:20.641Z,67.11
2018-07-09T10:17:29.300Z,66.75
2018-07-09T10:18:37.953Z,67.04
2018-07-09T10:19:46.860Z,67.14
2018-07-09T10:20:55.506Z,66.94
2018-07-09T10:22:04.158Z,67.72
2018-07-09T10:23:12.959Z,67.04
2018-07-09T10:24:21.813Z,66.85
2018-07-09T10:25:30.468Z,66.85
2018-07-09T10:26:39.110Z,67.14
2018-07-09T10:27:48.582Z,67.52
2018-07-09T10:28:56.419Z,67.52
2018-07-09T10:30:05.072Z,68.4
2018-07-09T10:31:13.714Z,68.98
2018-07-09T10:32:22.376Z,68.46
2018-07-09T10:33:31.027Z,68.26
2018-07-09T10:34:39.678Z,67.88
2018-07-09T10:35:48.322Z,68.07
2018-07-09T10:36:56.976Z,67.88
2018-07-09T10:38:05.626Z,68.94
2018-07-09T10:39:14.281Z,69.42
2018-07-09T10:40:22.937Z,70
2018-07-09T10:41:31.580Z,70.16
2018-07-09T10:42:40.240Z,69.87
2018-07-09T10:43:48.890Z,71.12
2018-07-09T10:44:57.548Z,70.16
2018-07-09T10:46:06.197Z,69.68
2018-07-09T10:47:14.854Z,70.16
2018-07-09T10:48:23.495Z,70.45
2018-07-09T10:49:32.418Z,69.97
2018-07-09T10:50:41.066Z,70.36
2018-07-09T10:51:49.719Z,71.03
2018-07-09T10:52:58.623Z,71.32
2018-07-09T10:54:07.283Z,71.03
2018-07-09T10:55:15.964Z,71.51
2018-07-09T10:56:24.881Z,71.51
2018-07-09T10:57:33.531Z,70.54
2018-07-09T10:58:42.179Z,70.16
2018-07-09T10:59:51.103Z,70.54
2018-07-09T11:00:59.753Z,71.03
2018-07-09T11:02:08.407Z,71.09
2018-07-09T11:03:17.055Z,71.58
2018-07-09T11:04:25.712Z,72.25
2018-07-09T11:05:34.364Z,72.06
2018-07-09T11:06:43.017Z,72.25
2018-07-09T11:07:51.666Z,72.34
2018-07-09T11:09:00.587Z,71.09
2018-07-09T11:10:09.236Z,70.61
2018-07-09T11:11:17.890Z,70.74
2018-07-09T11:12:26.537Z,71.51
2018-07-09T11:13:35.190Z,70.94
2018-07-09T11:14:44.109Z,71.03
2018-07-09T11:15:52.763Z,71.58
2018-07-09T11:17:01.419Z,71.77
2018-07-09T11:18:10.334Z,72.06
2018-07-09T11:19:18.979Z,72.06
2018-07-09T11:20:27.631Z,72.31
2018-07-09T11:21:36.295Z,72.69
2018-07-09T11:22:44.936Z,72.31
2018-07-09T11:23:53.856Z,73.57
2018-07-09T11:25:02.512Z,74.33
2018-07-09T11:26:11.167Z,73.66
2018-07-09T11:27:19.813Z,73.47
2018-07-09T11:28:28.465Z,73.85
2018-07-09T11:29:37.121Z,74.24
2018-07-09T11:30:45.766Z,74.82
2018-07-09T11:31:54.949Z,73.66
2018-07-09T11:33:03.600Z,73.85
2018-07-09T11:34:12.514Z,74.24
2018-07-09T11:35:21.159Z,73.11
2018-07-09T11:36:29.866Z,72.34
2018-07-09T11:37:38.497Z,72.34
2018-07-09T11:38:47.134Z,71.77
2018-07-09T11:39:55.799Z,72.15
2018-07-09T11:41:04.439Z,72.06
2018-07-09T11:42:13.115Z,72.28
2018-07-09T11:43:21.742Z,71.7
2018-07-09T11:44:30.393Z,72.28
2018-07-09T11:45:39.039Z,72.09
2018-07-09T11:46:47.691Z,72.77
2018-07-09T11:47:56.342Z,71.45
2018-07-09T11:49:04.997Z,69.52
2018-07-09T11:50:13.646Z,69.62
2018-07-09T11:51:22.296Z,69.81
2018-07-09T11:52:30.945Z,68.98
2018-07-09T11:53:39.593Z,68.3
2018-07-09T11:54:48.255Z,67.82
2018-07-09T11:55:56.902Z,68.01
2018-07-09T11:57:05.554Z,66.85
2018-07-09T11:58:14.197Z,67.24
2018-07-09T11:59:22.855Z,66.85
2018-07-09T12:00:31.509Z,67.52
2018-07-09T12:01:40.160Z,68.17
2018-07-09T12:02:48.806Z,68.07
2018-07-09T12:03:57.461Z,70.39
2018-07-09T12:05:06.111Z,70.1
2018-07-09T12:06:14.765Z,70
2018-07-09T12:07:23.414Z,69.52
2018-07-09T12:08:32.361Z,69.52
2018-07-09T12:09:41.020Z,68.26
2018-07-09T12:10:49.671Z,68.07
2018-07-09T12:11:58.326Z,68.46
2018-07-09T12:13:07.235Z,67.59
2018-07-09T12:14:15.884Z,67.97
2018-07-09T12:15:24.805Z,67.2
2018-07-09T12:16:33.456Z,67.04
2018-07-09T12:17:42.101Z,67.72
2018-07-09T12:18:50.755Z,67.52
2018-07-09T12:19:59.931Z,67.62
2018-07-09T12:21:08.590Z,66.75
2018-07-09T12:22:17.239Z,67.17
2018-07-09T12:23:26.156Z,66.2
2018-07-09T12:24:34.808Z,66.78
2018-07-09T12:25:43.469Z,64.66
2018-07-09T12:26:52.124Z,65.82
2018-07-09T12:28:01.034Z,65.24
2018-07-09T12:29:10.205Z,65.14
2018-07-09T12:30:18.600Z,64.66
2018-07-09T12:31:27.259Z,64.47
2018-07-09T12:32:35.910Z,64.56
2018-07-09T12:33:44.562Z,64.5
2018-07-09T12:34:53.210Z,64.5
2018-07-09T12:36:02.208Z,63.92
2018-07-09T12:37:10.789Z,63.92
2018-07-09T12:38:19.440Z,64.11
2018-07-09T12:39:28.087Z,65.47
2018-07-09T12:40:36.740Z,63.34
2018-07-09T12:41:45.398Z,63.37
2018-07-09T12:42:54.049Z,63.56
2018-07-09T12:44:02.693Z,62.79
2018-07-09T12:45:11.347Z,63.46
2018-07-09T12:46:20.272Z,61.72
2018-07-09T12:47:28.926Z,62.01
2018-07-09T12:48:37.583Z,62.11
2018-07-09T12:49:46.326Z,62.59
2018-07-09T12:50:54.892Z,63.18
2018-07-09T12:52:03.536Z,63.37
2018-07-09T12:53:12.199Z,62.4
2018-07-09T12:54:20.843Z,62.4
2018-07-09T12:55:29.504Z,62.5
2018-07-09T12:56:38.156Z,61.85
2018-07-09T12:57:46.917Z,60.69
2018-07-09T12:58:55.877Z,59.75
2018-07-09T13:00:04.531Z,58.98
2018-07-09T13:01:13.180Z,58.39
2018-07-09T13:02:21.852Z,58.52
2018-07-09T13:03:30.493Z,57.94
2018-07-09T13:04:39.141Z,58.78
2018-07-09T13:05:47.794Z,60.04
2018-07-09T13:06:57.071Z,60.43
2018-07-09T13:08:05.682Z,60.82
2018-07-09T13:09:14.327Z,59.91
2018-07-09T13:10:22.985Z,60.4
2018-07-09T13:11:31.628Z,61.33
2018-07-09T13:12:40.293Z,61.53
2018-07-09T13:13:49.203Z,61.82
2018-07-09T13:14:57.861Z,62.88
2018-07-09T13:16:06.506Z,62.88
2018-07-09T13:17:15.169Z,63.14
2018-07-09T13:18:23.818Z,63.34
2018-07-09T13:19:32.472Z,62.66
2018-07-09T13:20:41.117Z,62.95
2018-07-09T13:21:50.036Z,63.24
2018-07-09T13:22:58.694Z,63.69
2018-07-09T13:24:07.348Z,64.56
2018-07-09T13:25:16.004Z,64.43
2018-07-09T13:26:24.644Z,65.24
2018-07-09T13:27:33.305Z,65.4
2018-07-09T13:28:41.950Z,66.36
2018-07-09T13:29:50.611Z,65.4
2018-07-09T13:30:59.549Z,65.34
2018-07-09T13:32:08.173Z,64.76
2018-07-09T13:33:17.086Z,65.05
2018-07-09T13:34:26.014Z,66.17
2018-07-09T13:35:34.658Z,65.78
2018-07-09T13:36:43.318Z,66.94
2018-07-09T13:37:52.002Z,68.3
2018-07-09T13:39:00.628Z,68.1
2018-07-09T13:40:09.277Z,66.01
2018-07-09T13:41:17.925Z,65.88
2018-07-09T13:42:26.577Z,64.37
2018-07-09T13:43:35.226Z,64.08
2018-07-09T13:44:43.880Z,63.98
2018-07-09T13:45:53.054Z,64.08
2018-07-09T13:47:01.715Z,64.37
2018-07-09T13:48:10.625Z,64.95
2018-07-09T13:49:19.284Z,64.85
2018-07-09T13:50:27.934Z,64.31
2018-07-09T13:51:36.589Z,64.5
2018-07-09T13:52:45.242Z,64.98
2018-07-09T13:53:53.900Z,63.14
2018-07-09T13:55:02.552Z,63.92
2018-07-09T13:56:11.206Z,63.92
2018-07-09T13:57:19.861Z,63.34
2018-07-09T13:58:28.516Z,63.46
2018-07-09T13:59:37.169Z,64.24
2018-07-09T14:00:45.822Z,63.76
2018-07-09T14:01:54.743Z,63.37
2018-07-09T14:03:03.394Z,63.53
2018-07-09T14:04:12.071Z,64.79
2018-07-09T14:05:20.702Z,65.37
2018-07-09T14:06:29.357Z,66.05
2018-07-09T14:07:38.009Z,65.24
2018-07-09T14:08:46.664Z,65.72
2018-07-09T14:09:55.313Z,65.82
2018-07-09T14:11:03.971Z,66.69
2018-07-09T14:12:12.616Z,65.34
2018-07-09T14:13:21.537Z,66.27
2018-07-09T14:14:30.458Z,68.01
2018-07-09T14:15:39.381Z,66.27
2018-07-09T14:16:48.029Z,67.14
2018-07-09T14:17:56.677Z,68.68
2018-07-09T14:19:05.326Z,68.2
2018-07-09T14:20:13.974Z,69.17
2018-07-09T14:21:22.632Z,69.04
2018-07-09T14:22:31.283Z,68.84
2018-07-09T14:23:39.935Z,68.65
2018-07-09T14:24:48.582Z,68.17
2018-07-09T14:25:57.248Z,68.84
2018-07-09T14:27:06.163Z,69.81
2018-07-09T14:28:15.083Z,70.58
2018-07-09T14:29:23.729Z,69.81
2018-07-09T14:30:32.652Z,69.39
2018-07-09T14:31:41.300Z,69.49
2018-07-09T14:32:49.959Z,70.26
2018-07-09T14:33:58.601Z,70.36
2018-07-09T14:35:07.257Z,70.84
2018-07-09T14:36:15.908Z,69.97
2018-07-09T14:37:24.568Z,70.06
2018-07-09T14:38:33.220Z,70.64
2018-07-09T14:39:42.130Z,70.16
2018-07-09T14:40:50.784Z,70.64
2018-07-09T14:41:59.432Z,71.22
2018-07-09T14:43:08.092Z,72.96
2018-07-09T14:44:16.741Z,72.58
2018-07-09T14:45:25.396Z,72.19
2018-07-09T14:46:34.043Z,72.73
2018-07-09T14:47:42.704Z,73.11